Skip Navigation Links
NOAA logo - Click to go to the NOAA homepage
NOAA's National Weather Service
Alaska Aviation Weather Unit
  NWS logo - Click to go to the NWS homepage
Left Navbar Graphic     21 AKDT = 05 GMT

   
NOAA is celebrating 200 years of science, service, and stewardship. Visit the NOAA 200th celebration Web site to learn more.
USA.gov is the U.S. Government's official Web portal to all Federal, state and local government Web resources and services.
Facebook
NWS on Facebook

Important Change Regarding the AAWU Web Presence

 

Over the last several months, the AAWU has been working to navigate its webpages to a nationally supported server. Security, as well as other needs, have necessitated the change.  In the process, we have made an effort to enhance the functionality of our website, as well as some of our products. As of June 27, 2017, aawu.arh.noaa.gov will be discontinued. The new AAWU web address is weather.gov/aawu. It is now live and will run in-parallel with the old site until it is discontinued. Please send any feedback or questions regarding the new webpages to nws.ar.aawu.webauthors@noaa.gov.  Thank you for your patience during this time of transition.
AAWU Home :: Display TAF Add Bookmark
TAF CYEV 250038Z 2501/2513 07006KT P6SM FEW050
    RMK NXT FCST BY 250700Z=

METAR CYEV 242300Z 07005KT 010V160 15SM FEW060 FEW140 21/10 A3000 RMK CU1AC1 SLP163 DENSITY ALT 900FT= METAR CYEV 250000Z VRB02KT 15SM FEW060 22/10 A2999 RMK CU1 SLP159 DENSITY ALT 1000FT= METAR CYEV 250100Z 09006KT 15SM FEW065 22/10 A2997 RMK CU1 FU ALFT SLP154 DENSITY ALT 1100FT= METAR CYEV 250200Z 07008G15KT 020V090 15SM FEW065 FEW100 22/10 A2996 RMK CU1AC1 SLP151 DENSITY ALT 1100FT= METAR CYEV 250300Z 06010KT 15SM FEW065 FEW100 SCT290 22/09 A2996 RMK CU1AC1CI1 SLP149 DENSITY ALT 1100FT= METAR CYEV 250400Z 06010G17KT 15SM FEW060 FEW100 SCT290 21/09 A2995 RMK CU1AC1CI1 SLP148 DENSITY ALT 1000FT= METAR CYEV 250500Z 06010KT 15SM FEW060 FEW100 SCT250 21/09 A2994 RMK CU1AC1CI2 CU TR SLP144 DENSITY ALT 900FT=
 Alaska TAF Map

NOAA's National Weather Service
Alaska Aviation Weather Unit
6930 Sand Lake Road
Anchorage, AK 99502-1845
Disclaimer
Credits
Glossary
Privacy Policy
About Us
Career Opportunities
Contact AAWU Internet Services Site last modified: April, 17th 2012